sensor_id;sensor_type;location;lat;lon;timestamp;temperature;humidity
22765;DHT22;11549;50.852;3.816;2023-01-05T00:01:37;11.40;99.90
22765;DHT22;11549;50.852;3.816;2023-01-05T00:04:06;11.40;99.90
22765;DHT22;11549;50.852;3.816;2023-01-05T00:06:35;11.30;99.90
22765;DHT22;11549;50.852;3.816;2023-01-05T00:09:05;11.30;99.90
22765;DHT22;11549;50.852;3.816;2023-01-05T00:11:34;11.40;99.90
22765;DHT22;11549;50.852;3.816;2023-01-05T00:14:23;11.40;99.90
22765;DHT22;11549;50.852;3.816;2023-01-05T00:17:11;11.40;99.90
22765;DHT22;11549;50.852;3.816;2023-01-05T00:19:58;11.40;99.90
22765;DHT22;11549;50.852;3.816;2023-01-05T00:22:46;11.50;99.90
22765;DHT22;11549;50.852;3.816;2023-01-05T00:25:16;11.40;99.90
22765;DHT22;11549;50.852;3.816;2023-01-05T00:27:46;11.40;99.90
22765;DHT22;11549;50.852;3.816;2023-01-05T00:30:20;11.40;99.90
22765;DHT22;11549;50.852;3.816;2023-01-05T00:32:49;11.40;99.90
22765;DHT22;11549;50.852;3.816;2023-01-05T00:35:17;11.40;99.90
22765;DHT22;11549;50.852;3.816;2023-01-05T00:37:46;11.40;99.90
22765;DHT22;11549;50.852;3.816;2023-01-05T00:40:17;11.40;99.90
22765;DHT22;11549;50.852;3.816;2023-01-05T00:42:46;11.40;99.90
22765;DHT22;11549;50.852;3.816;2023-01-05T00:45:17;11.40;99.90
22765;DHT22;11549;50.852;3.816;2023-01-05T00:47:48;11.40;99.90
22765;DHT22;11549;50.852;3.816;2023-01-05T00:50:18;11.40;99.90
22765;DHT22;11549;50.852;3.816;2023-01-05T00:52:47;11.30;99.90
22765;DHT22;11549;50.852;3.816;2023-01-05T00:55:16;11.30;99.90
22765;DHT22;11549;50.852;3.816;2023-01-05T00:57:44;11.30;99.90
22765;DHT22;11549;50.852;3.816;2023-01-05T01:00:15;11.30;99.90
22765;DHT22;11549;50.852;3.816;2023-01-05T01:02:50;11.30;99.90
22765;DHT22;11549;50.852;3.816;2023-01-05T01:05:18;11.30;99.90
22765;DHT22;11549;50.852;3.816;2023-01-05T01:07:47;11.30;99.90
22765;DHT22;11549;50.852;3.816;2023-01-05T01:10:16;11.30;99.90
22765;DHT22;11549;50.852;3.816;2023-01-05T01:12:44;11.30;99.90
22765;DHT22;11549;50.852;3.816;2023-01-05T01:15:13;11.30;99.90
22765;DHT22;11549;50.852;3.816;2023-01-05T01:17:41;11.30;99.90
22765;DHT22;11549;50.852;3.816;2023-01-05T01:20:11;11.20;99.90
22765;DHT22;11549;50.852;3.816;2023-01-05T01:22:39;11.20;99.90
22765;DHT22;11549;50.852;3.816;2023-01-05T01:25:08;11.20;99.90
22765;DHT22;11549;50.852;3.816;2023-01-05T01:27:36;11.20;99.90
22765;DHT22;11549;50.852;3.816;2023-01-05T01:30:06;11.20;99.90
22765;DHT22;11549;50.852;3.816;2023-01-05T01:32:34;11.20;99.90
22765;DHT22;11549;50.852;3.816;2023-01-05T01:35:03;11.20;99.90
22765;DHT22;11549;50.852;3.816;2023-01-05T01:37:33;11.20;99.90
22765;DHT22;11549;50.852;3.816;2023-01-05T01:40:01;11.30;99.90
22765;DHT22;11549;50.852;3.816;2023-01-05T01:42:30;11.40;99.90
22765;DHT22;11549;50.852;3.816;2023-01-05T01:45:00;11.30;99.90
22765;DHT22;11549;50.852;3.816;2023-01-05T01:47:36;11.30;99.90
22765;DHT22;11549;50.852;3.816;2023-01-05T01:50:10;11.30;99.90
22765;DHT22;11549;50.852;3.816;2023-01-05T01:52:42;11.20;99.90
22765;DHT22;11549;50.852;3.816;2023-01-05T01:55:11;11.20;99.90
22765;DHT22;11549;50.852;3.816;2023-01-05T01:57:41;11.30;99.90
22765;DHT22;11549;50.852;3.816;2023-01-05T02:00:11;11.40;99.90
22765;DHT22;11549;50.852;3.816;2023-01-05T02:02:41;11.40;99.90
22765;DHT22;11549;50.852;3.816;2023-01-05T02:05:11;11.40;99.90
22765;DHT22;11549;50.852;3.816;2023-01-05T02:07:45;11.40;99.90
22765;DHT22;11549;50.852;3.816;2023-01-05T02:10:17;11.40;99.90
22765;DHT22;11549;50.852;3.816;2023-01-05T02:13:00;11.40;99.90
22765;DHT22;11549;50.852;3.816;2023-01-05T02:15:41;11.40;99.90
22765;DHT22;11549;50.852;3.816;2023-01-05T02:18:22;11.30;99.90
22765;DHT22;11549;50.852;3.816;2023-01-05T02:21:02;11.30;99.90
22765;DHT22;11549;50.852;3.816;2023-01-05T02:32:56;11.30;99.90
22765;DHT22;11549;50.852;3.816;2023-01-05T02:35:33;11.30;99.90
22765;DHT22;11549;50.852;3.816;2023-01-05T02:38:10;11.20;99.90
22765;DHT22;11549;50.852;3.816;2023-01-05T02:40:44;11.20;99.90
22765;DHT22;11549;50.852;3.816;2023-01-05T02:43:16;11.20;99.90
22765;DHT22;11549;50.852;3.816;2023-01-05T02:45:46;11.30;99.90
22765;DHT22;11549;50.852;3.816;2023-01-05T02:48:16;11.40;99.90
22765;DHT22;11549;50.852;3.816;2023-01-05T02:50:48;11.30;99.90
22765;DHT22;11549;50.852;3.816;2023-01-05T02:53:22;11.30;99.90
22765;DHT22;11549;50.852;3.816;2023-01-05T02:55:56;11.30;99.90
22765;DHT22;11549;50.852;3.816;2023-01-05T02:58:32;11.30;99.90
22765;DHT22;11549;50.852;3.816;2023-01-05T03:01:04;11.40;99.90
22765;DHT22;11549;50.852;3.816;2023-01-05T03:03:37;11.40;99.90
22765;DHT22;11549;50.852;3.816;2023-01-05T03:06:12;11.40;99.90
22765;DHT22;11549;50.852;3.816;2023-01-05T03:08:48;11.40;99.90
22765;DHT22;11549;50.852;3.816;2023-01-05T03:11:19;11.40;99.90
22765;DHT22;11549;50.852;3.816;2023-01-05T03:14:09;11.40;99.90
22765;DHT22;11549;50.852;3.816;2023-01-05T03:16:38;11.40;99.90
22765;DHT22;11549;50.852;3.816;2023-01-05T03:19:11;11.40;99.90
22765;DHT22;11549;50.852;3.816;2023-01-05T03:22:00;11.40;99.90
22765;DHT22;11549;50.852;3.816;2023-01-05T03:24:47;11.40;99.90
22765;DHT22;11549;50.852;3.816;2023-01-05T03:27:35;11.50;99.90
22765;DHT22;11549;50.852;3.816;2023-01-05T03:30:25;11.40;99.90
22765;DHT22;11549;50.852;3.816;2023-01-05T03:33:18;11.50;99.90
22765;DHT22;11549;50.852;3.816;2023-01-05T03:36:07;11.50;99.90
22765;DHT22;11549;50.852;3.816;2023-01-05T03:38:39;11.40;99.90
22765;DHT22;11549;50.852;3.816;2023-01-05T03:41:11;11.40;99.90
22765;DHT22;11549;50.852;3.816;2023-01-05T03:43:41;11.40;99.90
22765;DHT22;11549;50.852;3.816;2023-01-05T03:46:12;11.50;99.90
22765;DHT22;11549;50.852;3.816;2023-01-05T03:48:41;11.40;99.90
22765;DHT22;11549;50.852;3.816;2023-01-05T03:51:12;11.50;99.90
22765;DHT22;11549;50.852;3.816;2023-01-05T03:53:42;11.50;99.90
22765;DHT22;11549;50.852;3.816;2023-01-05T03:56:10;11.50;99.90
22765;DHT22;11549;50.852;3.816;2023-01-05T03:58:39;11.50;99.90
22765;DHT22;11549;50.852;3.816;2023-01-05T04:01:07;11.50;99.90
22765;DHT22;11549;50.852;3.816;2023-01-05T04:03:36;11.50;99.90
22765;DHT22;11549;50.852;3.816;2023-01-05T04:06:06;11.50;99.90
22765;DHT22;11549;50.852;3.816;2023-01-05T04:08:36;11.60;99.90
22765;DHT22;11549;50.852;3.816;2023-01-05T04:11:13;11.50;99.90
22765;DHT22;11549;50.852;3.816;2023-01-05T04:13:42;11.50;99.90
22765;DHT22;11549;50.852;3.816;2023-01-05T04:16:11;11.50;99.90
22765;DHT22;11549;50.852;3.816;2023-01-05T04:18:39;11.40;99.90
22765;DHT22;11549;50.852;3.816;2023-01-05T04:21:08;11.40;99.90
22765;DHT22;11549;50.852;3.816;2023-01-05T04:23:37;11.40;99.90
22765;DHT22;11549;50.852;3.816;2023-01-05T04:26:06;11.50;99.90
22765;DHT22;11549;50.852;3.816;2023-01-05T04:28:34;11.50;99.90
22765;DHT22;11549;50.852;3.816;2023-01-05T04:31:03;11.60;99.90
22765;DHT22;11549;50.852;3.816;2023-01-05T04:33:31;11.60;99.90
22765;DHT22;11549;50.852;3.816;2023-01-05T04:36:00;11.50;99.90
22765;DHT22;11549;50.852;3.816;2023-01-05T04:38:28;11.50;99.90
22765;DHT22;11549;50.852;3.816;2023-01-05T04:40:58;11.40;99.90
22765;DHT22;11549;50.852;3.816;2023-01-05T04:43:26;11.40;99.90
22765;DHT22;11549;50.852;3.816;2023-01-05T04:45:55;11.40;99.90
22765;DHT22;11549;50.852;3.816;2023-01-05T04:48:23;11.50;99.90
22765;DHT22;11549;50.852;3.816;2023-01-05T04:50:52;11.50;99.90
22765;DHT22;11549;50.852;3.816;2023-01-05T04:53:21;11.40;99.90
22765;DHT22;11549;50.852;3.816;2023-01-05T04:55:50;11.50;99.90
22765;DHT22;11549;50.852;3.816;2023-01-05T04:58:20;11.50;99.90
22765;DHT22;11549;50.852;3.816;2023-01-05T05:00:49;11.50;99.90
22765;DHT22;11549;50.852;3.816;2023-01-05T05:03:17;11.50;99.90
22765;DHT22;11549;50.852;3.816;2023-01-05T05:05:45;11.60;99.90
22765;DHT22;11549;50.852;3.816;2023-01-05T05:08:14;11.40;99.90
22765;DHT22;11549;50.852;3.816;2023-01-05T05:10:42;11.40;99.90
22765;DHT22;11549;50.852;3.816;2023-01-05T05:13:11;11.40;99.90
22765;DHT22;11549;50.852;3.816;2023-01-05T05:15:43;11.40;99.90
22765;DHT22;11549;50.852;3.816;2023-01-05T05:18:11;11.40;99.90
22765;DHT22;11549;50.852;3.816;2023-01-05T05:20:42;11.40;99.90
22765;DHT22;11549;50.852;3.816;2023-01-05T05:23:11;11.30;99.90
22765;DHT22;11549;50.852;3.816;2023-01-05T05:25:39;11.40;99.90
22765;DHT22;11549;50.852;3.816;2023-01-05T05:28:07;11.40;99.90
22765;DHT22;11549;50.852;3.816;2023-01-05T05:30:36;11.50;99.90
22765;DHT22;11549;50.852;3.816;2023-01-05T05:33:06;11.40;99.90
22765;DHT22;11549;50.852;3.816;2023-01-05T05:35:35;11.40;99.90
22765;DHT22;11549;50.852;3.816;2023-01-05T05:38:03;11.40;99.90
22765;DHT22;11549;50.852;3.816;2023-01-05T05:40:31;11.30;99.90
22765;DHT22;11549;50.852;3.816;2023-01-05T05:42:59;11.40;99.90
22765;DHT22;11549;50.852;3.816;2023-01-05T05:45:28;11.40;99.90
22765;DHT22;11549;50.852;3.816;2023-01-05T05:47:56;11.40;99.90
22765;DHT22;11549;50.852;3.816;2023-01-05T05:50:28;11.40;99.90
22765;DHT22;11549;50.852;3.816;2023-01-05T05:52:56;11.30;99.90
22765;DHT22;11549;50.852;3.816;2023-01-05T05:55:25;11.30;99.90
22765;DHT22;11549;50.852;3.816;2023-01-05T05:57:53;11.30;99.90
22765;DHT22;11549;50.852;3.816;2023-01-05T06:00:21;11.30;99.90
22765;DHT22;11549;50.852;3.816;2023-01-05T06:02:50;11.30;99.90
22765;DHT22;11549;50.852;3.816;2023-01-05T06:05:19;11.30;99.90
22765;DHT22;11549;50.852;3.816;2023-01-05T06:07:48;11.40;99.90
22765;DHT22;11549;50.852;3.816;2023-01-05T06:10:17;11.40;99.90
22765;DHT22;11549;50.852;3.816;2023-01-05T06:12:45;11.40;99.90
22765;DHT22;11549;50.852;3.816;2023-01-05T06:15:14;11.30;99.90
22765;DHT22;11549;50.852;3.816;2023-01-05T06:17:44;11.20;99.90
22765;DHT22;11549;50.852;3.816;2023-01-05T06:20:15;11.30;99.90
22765;DHT22;11549;50.852;3.816;2023-01-05T06:22:44;11.30;99.90
22765;DHT22;11549;50.852;3.816;2023-01-05T06:25:13;11.30;99.90
22765;DHT22;11549;50.852;3.816;2023-01-05T06:27:42;11.30;99.90
22765;DHT22;11549;50.852;3.816;2023-01-05T06:30:11;11.20;99.90
22765;DHT22;11549;50.852;3.816;2023-01-05T06:32:40;11.20;99.90
22765;DHT22;11549;50.852;3.816;2023-01-05T06:35:09;11.20;99.90
22765;DHT22;11549;50.852;3.816;2023-01-05T06:37:37;11.10;99.90
22765;DHT22;11549;50.852;3.816;2023-01-05T06:40:06;11.00;99.90
22765;DHT22;11549;50.852;3.816;2023-01-05T06:42:39;11.00;99.90
22765;DHT22;11549;50.852;3.816;2023-01-05T06:45:09;11.00;99.90
22765;DHT22;11549;50.852;3.816;2023-01-05T06:47:40;10.90;99.90
22765;DHT22;11549;50.852;3.816;2023-01-05T06:50:10;10.90;99.90
22765;DHT22;11549;50.852;3.816;2023-01-05T06:52:38;10.90;99.90
22765;DHT22;11549;50.852;3.816;2023-01-05T06:55:08;10.90;99.90
22765;DHT22;11549;50.852;3.816;2023-01-05T06:57:38;11.00;99.90
22765;DHT22;11549;50.852;3.816;2023-01-05T07:00:08;10.90;99.90
22765;DHT22;11549;50.852;3.816;2023-01-05T07:02:38;10.80;99.90
22765;DHT22;11549;50.852;3.816;2023-01-05T07:05:07;10.80;99.90
22765;DHT22;11549;50.852;3.816;2023-01-05T07:07:36;10.80;99.90
22765;DHT22;11549;50.852;3.816;2023-01-05T07:10:06;10.80;99.90
22765;DHT22;11549;50.852;3.816;2023-01-05T07:12:34;10.90;99.90
22765;DHT22;11549;50.852;3.816;2023-01-05T07:15:05;10.90;99.90
22765;DHT22;11549;50.852;3.816;2023-01-05T07:17:34;10.80;99.90
22765;DHT22;11549;50.852;3.816;2023-01-05T07:20:04;10.80;99.90
22765;DHT22;11549;50.852;3.816;2023-01-05T07:22:33;10.70;99.90
22765;DHT22;11549;50.852;3.816;2023-01-05T07:25:02;10.70;99.90
22765;DHT22;11549;50.852;3.816;2023-01-05T07:27:30;10.70;99.90
22765;DHT22;11549;50.852;3.816;2023-01-05T07:29:58;10.70;99.90
22765;DHT22;11549;50.852;3.816;2023-01-05T07:32:28;10.70;99.90
22765;DHT22;11549;50.852;3.816;2023-01-05T07:34:57;10.80;99.90
22765;DHT22;11549;50.852;3.816;2023-01-05T07:37:25;10.70;99.90
22765;DHT22;11549;50.852;3.816;2023-01-05T07:39:53;10.70;99.90
22765;DHT22;11549;50.852;3.816;2023-01-05T07:42:21;10.70;99.90
22765;DHT22;11549;50.852;3.816;2023-01-05T07:44:50;10.70;99.90
22765;DHT22;11549;50.852;3.816;2023-01-05T07:47:18;10.70;99.90
22765;DHT22;11549;50.852;3.816;2023-01-05T07:49:48;10.60;99.90
22765;DHT22;11549;50.852;3.816;2023-01-05T07:52:16;10.80;99.90
22765;DHT22;11549;50.852;3.816;2023-01-05T07:54:44;10.80;99.90
22765;DHT22;11549;50.852;3.816;2023-01-05T07:57:13;10.90;99.90
22765;DHT22;11549;50.852;3.816;2023-01-05T07:59:41;10.90;99.90
22765;DHT22;11549;50.852;3.816;2023-01-05T08:02:09;11.00;99.90
22765;DHT22;11549;50.852;3.816;2023-01-05T08:04:38;11.00;99.90
22765;DHT22;11549;50.852;3.816;2023-01-05T08:07:08;11.00;99.90
22765;DHT22;11549;50.852;3.816;2023-01-05T08:09:37;11.00;99.90
22765;DHT22;11549;50.852;3.816;2023-01-05T08:12:24;11.00;99.90
22765;DHT22;11549;50.852;3.816;2023-01-05T08:14:52;11.10;99.90
22765;DHT22;11549;50.852;3.816;2023-01-05T08:17:20;11.10;99.90
22765;DHT22;11549;50.852;3.816;2023-01-05T08:19:49;11.10;99.90
22765;DHT22;11549;50.852;3.816;2023-01-05T08:22:19;11.20;99.90
22765;DHT22;11549;50.852;3.816;2023-01-05T08:24:47;11.20;99.90
22765;DHT22;11549;50.852;3.816;2023-01-05T08:27:15;11.30;99.90
22765;DHT22;11549;50.852;3.816;2023-01-05T08:29:44;11.30;99.90
22765;DHT22;11549;50.852;3.816;2023-01-05T08:32:12;11.30;99.90
22765;DHT22;11549;50.852;3.816;2023-01-05T08:34:40;11.40;99.90
22765;DHT22;11549;50.852;3.816;2023-01-05T08:37:09;11.50;99.90
22765;DHT22;11549;50.852;3.816;2023-01-05T08:39:39;11.80;99.90
22765;DHT22;11549;50.852;3.816;2023-01-05T08:42:07;12.00;99.90
22765;DHT22;11549;50.852;3.816;2023-01-05T08:44:36;12.20;99.90
22765;DHT22;11549;50.852;3.816;2023-01-05T08:47:04;12.50;99.90
22765;DHT22;11549;50.852;3.816;2023-01-05T08:49:33;12.60;99.90
22765;DHT22;11549;50.852;3.816;2023-01-05T08:52:01;12.80;99.90
22765;DHT22;11549;50.852;3.816;2023-01-05T08:54:30;12.90;99.90
22765;DHT22;11549;50.852;3.816;2023-01-05T08:57:00;12.90;99.90
22765;DHT22;11549;50.852;3.816;2023-01-05T08:59:28;12.90;99.90
22765;DHT22;11549;50.852;3.816;2023-01-05T09:01:56;12.60;99.90
22765;DHT22;11549;50.852;3.816;2023-01-05T09:04:25;12.40;99.90
22765;DHT22;11549;50.852;3.816;2023-01-05T09:06:54;12.40;99.90
22765;DHT22;11549;50.852;3.816;2023-01-05T09:09:22;12.30;99.90
22765;DHT22;11549;50.852;3.816;2023-01-05T09:11:51;12.10;99.90
22765;DHT22;11549;50.852;3.816;2023-01-05T09:14:20;12.00;99.90
22765;DHT22;11549;50.852;3.816;2023-01-05T09:16:49;12.00;99.90
22765;DHT22;11549;50.852;3.816;2023-01-05T09:19:33;11.90;99.90
22765;DHT22;11549;50.852;3.816;2023-01-05T09:22:03;11.90;99.90
22765;DHT22;11549;50.852;3.816;2023-01-05T09:24:31;12.00;99.90
22765;DHT22;11549;50.852;3.816;2023-01-05T09:26:59;12.00;99.90
22765;DHT22;11549;50.852;3.816;2023-01-05T09:29:31;11.90;99.90
22765;DHT22;11549;50.852;3.816;2023-01-05T09:31:59;11.80;99.90
22765;DHT22;11549;50.852;3.816;2023-01-05T09:34:27;11.90;99.90
22765;DHT22;11549;50.852;3.816;2023-01-05T09:36:56;12.00;99.90
22765;DHT22;11549;50.852;3.816;2023-01-05T09:39:24;12.10;99.90
22765;DHT22;11549;50.852;3.816;2023-01-05T09:41:54;12.00;99.90
22765;DHT22;11549;50.852;3.816;2023-01-05T09:44:28;12.00;99.90
22765;DHT22;11549;50.852;3.816;2023-01-05T09:47:02;12.00;99.90
22765;DHT22;11549;50.852;3.816;2023-01-05T09:49:31;12.10;99.90
22765;DHT22;11549;50.852;3.816;2023-01-05T09:52:03;12.10;99.90
22765;DHT22;11549;50.852;3.816;2023-01-05T09:54:36;12.10;99.90
22765;DHT22;11549;50.852;3.816;2023-01-05T09:57:10;12.10;99.90
22765;DHT22;11549;50.852;3.816;2023-01-05T09:59:42;12.20;99.90
22765;DHT22;11549;50.852;3.816;2023-01-05T10:02:25;12.20;99.90
22765;DHT22;11549;50.852;3.816;2023-01-05T10:04:54;12.30;99.90
22765;DHT22;11549;50.852;3.816;2023-01-05T10:07:30;12.30;99.90
22765;DHT22;11549;50.852;3.816;2023-01-05T10:10:04;12.30;99.90
22765;DHT22;11549;50.852;3.816;2023-01-05T10:12:42;12.30;99.90
22765;DHT22;11549;50.852;3.816;2023-01-05T10:15:39;12.30;99.90
22765;DHT22;11549;50.852;3.816;2023-01-05T10:18:12;12.40;99.90
22765;DHT22;11549;50.852;3.816;2023-01-05T10:20:56;12.40;99.90
22765;DHT22;11549;50.852;3.816;2023-01-05T10:23:48;12.60;99.90
22765;DHT22;11549;50.852;3.816;2023-01-05T10:26:25;12.80;99.90
22765;DHT22;11549;50.852;3.816;2023-01-05T10:29:18;13.00;99.90
22765;DHT22;11549;50.852;3.816;2023-01-05T10:31:54;13.10;99.90
22765;DHT22;11549;50.852;3.816;2023-01-05T10:34:37;13.20;99.90
22765;DHT22;11549;50.852;3.816;2023-01-05T10:37:22;13.40;99.90
22765;DHT22;11549;50.852;3.816;2023-01-05T10:40:02;13.70;99.90
22765;DHT22;11549;50.852;3.816;2023-01-05T10:42:46;13.90;99.90
22765;DHT22;11549;50.852;3.816;2023-01-05T10:45:18;14.00;99.90
22765;DHT22;11549;50.852;3.816;2023-01-05T10:47:47;13.90;99.90
22765;DHT22;11549;50.852;3.816;2023-01-05T10:50:30;13.80;99.90
22765;DHT22;11549;50.852;3.816;2023-01-05T10:53:00;13.90;99.90
22765;DHT22;11549;50.852;3.816;2023-01-05T10:55:31;13.90;99.90
22765;DHT22;11549;50.852;3.816;2023-01-05T10:58:00;13.60;99.90
22765;DHT22;11549;50.852;3.816;2023-01-05T11:00:40;13.60;99.90
22765;DHT22;11549;50.852;3.816;2023-01-05T11:03:13;13.60;99.90
22765;DHT22;11549;50.852;3.816;2023-01-05T11:05:46;13.60;99.90
22765;DHT22;11549;50.852;3.816;2023-01-05T11:08:16;13.60;99.90
22765;DHT22;11549;50.852;3.816;2023-01-05T11:10:51;13.70;99.90
22765;DHT22;11549;50.852;3.816;2023-01-05T11:13:28;13.80;99.90
22765;DHT22;11549;50.852;3.816;2023-01-05T11:16:01;13.80;99.90
22765;DHT22;11549;50.852;3.816;2023-01-05T11:18:33;13.80;99.90
22765;DHT22;11549;50.852;3.816;2023-01-05T11:21:10;13.80;99.90
22765;DHT22;11549;50.852;3.816;2023-01-05T11:23:41;13.80;99.90
22765;DHT22;11549;50.852;3.816;2023-01-05T11:26:30;13.80;99.90
22765;DHT22;11549;50.852;3.816;2023-01-05T11:29:11;13.80;99.90
22765;DHT22;11549;50.852;3.816;2023-01-05T11:31:44;13.80;99.90
22765;DHT22;11549;50.852;3.816;2023-01-05T11:34:38;13.70;99.90
22765;DHT22;11549;50.852;3.816;2023-01-05T11:37:22;13.80;99.90
22765;DHT22;11549;50.852;3.816;2023-01-05T11:39:53;13.80;99.90
22765;DHT22;11549;50.852;3.816;2023-01-05T11:42:29;13.70;99.90
22765;DHT22;11549;50.852;3.816;2023-01-05T11:45:00;13.60;99.90
22765;DHT22;11549;50.852;3.816;2023-01-05T11:47:32;13.70;99.90
22765;DHT22;11549;50.852;3.816;2023-01-05T11:50:17;13.80;99.90
22765;DHT22;11549;50.852;3.816;2023-01-05T11:52:50;13.80;99.90
22765;DHT22;11549;50.852;3.816;2023-01-05T11:55:31;13.70;99.90
22765;DHT22;11549;50.852;3.816;2023-01-05T11:58:22;13.70;99.90
22765;DHT22;11549;50.852;3.816;2023-01-05T12:01:11;13.80;99.90
22765;DHT22;11549;50.852;3.816;2023-01-05T12:04:03;13.80;99.90
22765;DHT22;11549;50.852;3.816;2023-01-05T12:07:00;13.80;99.90
22765;DHT22;11549;50.852;3.816;2023-01-05T12:09:36;13.80;99.90
22765;DHT22;11549;50.852;3.816;2023-01-05T12:12:15;13.90;99.90
22765;DHT22;11549;50.852;3.816;2023-01-05T12:15:04;13.90;99.90
22765;DHT22;11549;50.852;3.816;2023-01-05T12:17:44;13.90;99.90
22765;DHT22;11549;50.852;3.816;2023-01-05T12:20:43;14.00;99.90
22765;DHT22;11549;50.852;3.816;2023-01-05T12:26:20;14.00;99.90
22765;DHT22;11549;50.852;3.816;2023-01-05T12:32:14;13.80;99.90
22765;DHT22;11549;50.852;3.816;2023-01-05T12:38:28;13.80;99.90
22765;DHT22;11549;50.852;3.816;2023-01-05T12:47:25;13.60;99.90
22765;DHT22;11549;50.852;3.816;2023-01-05T12:49:59;13.60;99.90
22765;DHT22;11549;50.852;3.816;2023-01-05T12:52:30;13.40;99.90
22765;DHT22;11549;50.852;3.816;2023-01-05T12:55:04;13.40;99.90
22765;DHT22;11549;50.852;3.816;2023-01-05T12:57:37;13.30;99.90
22765;DHT22;11549;50.852;3.816;2023-01-05T13:00:09;13.30;99.90
22765;DHT22;11549;50.852;3.816;2023-01-05T13:02:43;13.30;99.90
22765;DHT22;11549;50.852;3.816;2023-01-05T13:05:19;13.30;99.90
22765;DHT22;11549;50.852;3.816;2023-01-05T13:07:53;13.40;99.90
22765;DHT22;11549;50.852;3.816;2023-01-05T13:10:25;13.40;99.90
22765;DHT22;11549;50.852;3.816;2023-01-05T13:12:57;13.30;99.90
22765;DHT22;11549;50.852;3.816;2023-01-05T13:15:29;13.30;99.90
22765;DHT22;11549;50.852;3.816;2023-01-05T13:18:12;13.30;99.90
22765;DHT22;11549;50.852;3.816;2023-01-05T13:20:44;13.40;99.90
22765;DHT22;11549;50.852;3.816;2023-01-05T13:23:15;13.30;99.90
22765;DHT22;11549;50.852;3.816;2023-01-05T13:25:49;13.30;99.90
22765;DHT22;11549;50.852;3.816;2023-01-05T13:28:20;13.40;99.90
22765;DHT22;11549;50.852;3.816;2023-01-05T13:31:09;13.40;99.90
22765;DHT22;11549;50.852;3.816;2023-01-05T13:37:22;13.60;99.90
22765;DHT22;11549;50.852;3.816;2023-01-05T13:40:08;13.40;99.90
22765;DHT22;11549;50.852;3.816;2023-01-05T13:46:24;13.30;99.90
22765;DHT22;11549;50.852;3.816;2023-01-05T13:49:11;13.40;99.90
22765;DHT22;11549;50.852;3.816;2023-01-05T13:51:50;13.40;99.90
22765;DHT22;11549;50.852;3.816;2023-01-05T13:54:37;13.40;99.90
22765;DHT22;11549;50.852;3.816;2023-01-05T13:57:22;13.40;99.90
22765;DHT22;11549;50.852;3.816;2023-01-05T13:59:53;13.50;99.90
22765;DHT22;11549;50.852;3.816;2023-01-05T14:02:35;13.50;99.90
22765;DHT22;11549;50.852;3.816;2023-01-05T14:05:15;13.50;99.90
22765;DHT22;11549;50.852;3.816;2023-01-05T14:07:44;13.50;99.90
22765;DHT22;11549;50.852;3.816;2023-01-05T14:10:22;13.40;99.90
22765;DHT22;11549;50.852;3.816;2023-01-05T14:12:52;13.40;99.90
22765;DHT22;11549;50.852;3.816;2023-01-05T14:15:39;13.50;99.90
22765;DHT22;11549;50.852;3.816;2023-01-05T14:18:08;13.50;99.90
22765;DHT22;11549;50.852;3.816;2023-01-05T14:20:39;13.60;99.90
22765;DHT22;11549;50.852;3.816;2023-01-05T14:23:57;13.60;99.90
22765;DHT22;11549;50.852;3.816;2023-01-05T14:27:03;13.60;99.90
22765;DHT22;11549;50.852;3.816;2023-01-05T14:32:37;13.50;99.90
22765;DHT22;11549;50.852;3.816;2023-01-05T14:35:27;13.40;99.90
22765;DHT22;11549;50.852;3.816;2023-01-05T14:37:58;13.50;99.90
22765;DHT22;11549;50.852;3.816;2023-01-05T14:40:34;13.60;99.90
22765;DHT22;11549;50.852;3.816;2023-01-05T14:43:06;13.60;99.90
22765;DHT22;11549;50.852;3.816;2023-01-05T14:45:38;13.60;99.90
22765;DHT22;11549;50.852;3.816;2023-01-05T14:48:26;13.70;99.90
22765;DHT22;11549;50.852;3.816;2023-01-05T14:51:09;13.50;99.90
22765;DHT22;11549;50.852;3.816;2023-01-05T14:53:42;13.60;99.90
22765;DHT22;11549;50.852;3.816;2023-01-05T14:56:22;13.60;99.90
22765;DHT22;11549;50.852;3.816;2023-01-05T14:59:13;13.60;99.90
22765;DHT22;11549;50.852;3.816;2023-01-05T15:01:49;13.60;99.90
22765;DHT22;11549;50.852;3.816;2023-01-05T15:04:21;13.60;99.90
22765;DHT22;11549;50.852;3.816;2023-01-05T15:07:04;13.50;99.90
22765;DHT22;11549;50.852;3.816;2023-01-05T15:12:50;13.50;99.90
22765;DHT22;11549;50.852;3.816;2023-01-05T15:15:41;13.50;99.90
22765;DHT22;11549;50.852;3.816;2023-01-05T15:18:35;13.40;99.90
22765;DHT22;11549;50.852;3.816;2023-01-05T15:21:31;13.50;99.90
22765;DHT22;11549;50.852;3.816;2023-01-05T15:24:22;13.40;99.90
22765;DHT22;11549;50.852;3.816;2023-01-05T15:27:06;13.40;99.90
22765;DHT22;11549;50.852;3.816;2023-01-05T15:29:56;13.50;99.90
22765;DHT22;11549;50.852;3.816;2023-01-05T15:32:32;13.50;99.90
22765;DHT22;11549;50.852;3.816;2023-01-05T15:35:07;13.50;99.90
22765;DHT22;11549;50.852;3.816;2023-01-05T15:37:39;13.40;99.90
22765;DHT22;11549;50.852;3.816;2023-01-05T15:40:27;13.30;99.90
22765;DHT22;11549;50.852;3.816;2023-01-05T15:43:00;13.20;99.90
22765;DHT22;11549;50.852;3.816;2023-01-05T15:45:31;13.20;99.90
22765;DHT22;11549;50.852;3.816;2023-01-05T15:48:08;13.20;99.90
22765;DHT22;11549;50.852;3.816;2023-01-05T15:50:42;13.20;99.90
22765;DHT22;11549;50.852;3.816;2023-01-05T15:53:22;13.30;99.90
22765;DHT22;11549;50.852;3.816;2023-01-05T15:55:52;13.20;99.90
22765;DHT22;11549;50.852;3.816;2023-01-05T15:58:21;13.20;99.90
22765;DHT22;11549;50.852;3.816;2023-01-05T16:01:04;13.20;99.90
22765;DHT22;11549;50.852;3.816;2023-01-05T16:03:36;13.20;99.90
22765;DHT22;11549;50.852;3.816;2023-01-05T16:06:07;13.20;99.90
22765;DHT22;11549;50.852;3.816;2023-01-05T16:08:39;13.20;99.90
22765;DHT22;11549;50.852;3.816;2023-01-05T16:11:10;13.20;99.90
22765;DHT22;11549;50.852;3.816;2023-01-05T16:13:43;13.10;99.90
22765;DHT22;11549;50.852;3.816;2023-01-05T16:16:17;13.20;99.90
22765;DHT22;11549;50.852;3.816;2023-01-05T16:19:11;13.10;99.90
22765;DHT22;11549;50.852;3.816;2023-01-05T16:21:43;13.10;99.90
22765;DHT22;11549;50.852;3.816;2023-01-05T16:24:17;13.10;99.90
22765;DHT22;11549;50.852;3.816;2023-01-05T16:26:48;13.00;99.90
22765;DHT22;11549;50.852;3.816;2023-01-05T16:29:31;13.00;99.90
22765;DHT22;11549;50.852;3.816;2023-01-05T16:32:00;13.10;99.90
22765;DHT22;11549;50.852;3.816;2023-01-05T16:34:30;13.00;99.90
22765;DHT22;11549;50.852;3.816;2023-01-05T16:37:00;12.90;99.90
22765;DHT22;11549;50.852;3.816;2023-01-05T16:39:35;12.90;99.90
22765;DHT22;11549;50.852;3.816;2023-01-05T16:42:12;12.90;99.90
22765;DHT22;11549;50.852;3.816;2023-01-05T16:45:08;12.80;99.90
22765;DHT22;11549;50.852;3.816;2023-01-05T16:47:41;12.80;99.90
22765;DHT22;11549;50.852;3.816;2023-01-05T16:53:27;12.90;99.90